Pemberton, NJ

7:02 PM EDT on October 25, 2014 (GMT -0400)
Arneys Mount Road | Change Station
CLOSE
Current Station
Personal Weather Station
Location: Pemberton, NJ
Elevation: 66 ft
Nearby Weather Stations

Elev 66 ft 40.00 °N, 74.69 °W | Updated 2 seconds ago

Clear
Clear
58.1 °F
Feels Like 58.1 °F
N
0.0
Wind Variable Wind from South
Gusts 0.0 mph

Today
High -- | Low -- °F
--% Chance of Precip.
Yesterday
High -- | Low -- °F
Precip. -- in
7:19 AM 6:05 PM
Waxing Crescent, 5% visible
Pressure 29.67 in
Visibility 5.0 miles
Clouds Clear
Dew Point 22 °F
Humidity 25%
Rainfall 0.00 in
Snow Depth Not available.
UV 0 out of 12
Pollen .10 out of 12
Ozone Good
PM2.5 Moderate
Flu Activity Sporadic
METAR KWRI 252258Z AUTO 22006KT 5SM R24/5000FT HZ CLR 14/08 A2966 RMK AO2 SLP047 T01350081 $

More Conditions Fewer Conditions

Pressure 29.67 in
Visibility 5.0 miles
Clouds Clear
Dew Point 22 °F
Humidity 25%
Rainfall 0.00 in
Snow Depth Not available.
UV 0 out of 12
Pollen .10 out of 12
Ozone Good
PM2.5 Moderate
Flu Activity Sporadic
METAR KWRI 252258Z AUTO 22006KT 5SM R24/5000FT HZ CLR 14/08 A2966 RMK AO2 SLP047 T01350081 $

More Conditions Fewer Conditions

10-Day Weather Forecast

Almanac

Astronomy

Oct. 25, 2014 Rise Set
Actual Time 7:19 AM EDT 6:05 PM EDT
Civil Twilight 6:52 AM EDT 6:32 PM EDT
Nautical Twilight 6:20 AM EDT 7:04 PM EDT
Astronomical Twilight 5:49 AM EDT 7:35 PM EDT
Moon 8:56 AM EDT 7:26 PM EDT
Length of Visible Light 11h 40m
Length of Day
10h 45m
Tomorrow will be 2m 25s shorter.
Waxing Crescent, 5% of the Moon is Illuminated
Today
Waxing Crescent
Oct 30
First Quarter
Nov 6
Full
Nov 14
Last Quarter
Nov 22
New

Today's Extremes

State Highs State Lows

Community

WunderPhotos

Upload Photos

1,765,021 photos uploaded!

Nearby

Air Quality

  Air Quality AQ Index Pollutant
Yesterday Good
OZONE
Yesterday Good
PM2.5
Current Moderate
PM2.5
Current Good
OZONE
Saturday Moderate
PM2.5
Sunday Good
PM2.5
Monday Good
PM2.5

Snow Depth

Station Depth Elevation
No new snow has been reported.

Earthquake Activity

City Distance Mag. Time & Date
No recent earthquake activity has been reported nearby.
Minimum magnitude displayed is 2.5.

Coastal Water Temperatures

Place Temperature
No Stations Reporting

Nearby Weather Stations